createdAt,value
2023-01-30T00:01:46.594Z,14.38
2023-01-30T00:04:17.143Z,13.80
2023-01-30T00:06:45.608Z,12.07
2023-01-30T00:09:16.122Z,13.95
2023-01-30T00:11:44.035Z,11.80
2023-01-30T00:14:11.982Z,11.75
2023-01-30T00:16:40.016Z,12.10
2023-01-30T00:19:08.001Z,12.63
2023-01-30T00:21:35.977Z,11.88
2023-01-30T00:24:04.133Z,12.80
2023-01-30T00:26:33.431Z,13.05
2023-01-30T00:29:01.500Z,13.93
2023-01-30T00:31:29.472Z,12.95
2023-01-30T00:33:57.428Z,10.73
2023-01-30T00:36:25.338Z,13.35
2023-01-30T00:38:53.258Z,12.32
2023-01-30T00:41:21.883Z,13.05
2023-01-30T00:44:08.611Z,11.57
2023-01-30T00:46:54.232Z,12.65
2023-01-30T00:49:22.334Z,12.20
2023-01-30T00:51:50.223Z,11.63
2023-01-30T00:54:18.159Z,11.93
2023-01-30T00:56:46.085Z,11.18
2023-01-30T00:59:15.633Z,13.00
2023-01-30T01:01:43.594Z,12.93
2023-01-30T01:04:11.899Z,7.72
2023-01-30T01:06:39.867Z,10.90
2023-01-30T01:09:08.576Z,12.10
2023-01-30T01:11:37.185Z,10.95
2023-01-30T01:14:06.512Z,12.98
2023-01-30T01:16:36.590Z,10.50
2023-01-30T01:19:04.892Z,12.15
2023-01-30T01:21:32.877Z,11.80
2023-01-30T01:24:01.671Z,12.95
2023-01-30T01:26:29.794Z,12.27
2023-01-30T01:28:58.361Z,12.07
2023-01-30T01:31:26.503Z,10.70
2023-01-30T01:33:55.937Z,14.50
2023-01-30T01:36:51.679Z,15.45
2023-01-30T01:39:12.013Z,13.63
2023-01-30T01:41:38.904Z,14.32
2023-01-30T01:44:08.738Z,15.85
2023-01-30T01:46:39.891Z,14.57
2023-01-30T01:49:17.029Z,14.60
2023-01-30T01:51:51.830Z,14.75
2023-01-30T01:54:26.804Z,12.18
2023-01-30T01:56:54.926Z,13.38
2023-01-30T01:59:27.927Z,15.80
2023-01-30T02:01:59.362Z,15.90
2023-01-30T02:04:49.217Z,16.55
2023-01-30T02:07:19.859Z,16.05
2023-01-30T02:09:47.991Z,15.13
2023-01-30T02:12:16.590Z,16.70
2023-01-30T02:14:45.569Z,14.63
2023-01-30T02:17:13.566Z,15.35
2023-01-30T02:19:51.578Z,14.18
2023-01-30T02:22:33.168Z,13.93
2023-01-30T02:25:30.890Z,14.77
2023-01-30T02:28:30.049Z,14.77
2023-01-30T02:31:28.315Z,15.30
2023-01-30T02:34:08.767Z,14.60
2023-01-30T02:36:47.784Z,14.25
2023-01-30T02:39:27.986Z,14.50
2023-01-30T02:42:06.612Z,14.40
2023-01-30T02:44:43.809Z,13.80
2023-01-30T02:47:17.217Z,14.68
2023-01-30T02:49:50.742Z,14.25
2023-01-30T02:52:18.771Z,14.38
2023-01-30T02:54:46.735Z,14.50
2023-01-30T02:57:21.180Z,14.38
2023-01-30T02:59:52.163Z,15.02
2023-01-30T03:02:43.271Z,14.45
2023-01-30T03:05:30.114Z,13.32
2023-01-30T03:08:13.261Z,12.73
2023-01-30T03:10:50.778Z,12.70
2023-01-30T03:13:27.313Z,12.30
2023-01-30T03:16:01.010Z,13.77
2023-01-30T03:18:30.806Z,10.68
2023-01-30T03:21:05.541Z,10.10
2023-01-30T03:23:33.631Z,14.85
2023-01-30T03:26:04.287Z,14.52
2023-01-30T03:28:33.299Z,14.18
2023-01-30T03:31:01.279Z,13.27
2023-01-30T03:33:30.621Z,11.88
2023-01-30T03:35:58.725Z,13.88
2023-01-30T03:38:26.683Z,12.80
2023-01-30T03:40:54.701Z,13.77
2023-01-30T03:43:23.825Z,12.10
2023-01-30T03:45:51.714Z,11.95
2023-01-30T03:48:19.722Z,11.00
2023-01-30T03:50:49.005Z,10.75
2023-01-30T03:53:16.966Z,13.50
2023-01-30T03:55:45.944Z,13.13
2023-01-30T03:58:13.998Z,13.35
2023-01-30T04:00:42.008Z,13.43
2023-01-30T04:03:10.037Z,10.05
2023-01-30T04:05:37.936Z,14.95
2023-01-30T04:08:07.375Z,9.82
2023-01-30T04:10:35.272Z,12.70
2023-01-30T04:13:03.216Z,12.02
2023-01-30T04:15:31.125Z,13.13
2023-01-30T04:17:59.060Z,12.45
2023-01-30T04:20:27.109Z,12.93
2023-01-30T04:22:55.750Z,13.55
2023-01-30T04:25:25.073Z,13.05
2023-01-30T04:27:53.106Z,11.85
2023-01-30T04:30:21.261Z,13.10
2023-01-30T04:32:49.205Z,13.90
2023-01-30T04:35:17.481Z,11.05
2023-01-30T04:37:45.550Z,13.15
2023-01-30T04:40:13.999Z,11.45
2023-01-30T04:42:43.317Z,11.60
2023-01-30T04:45:12.219Z,14.80
2023-01-30T04:47:40.189Z,13.10
2023-01-30T04:50:09.076Z,14.93
2023-01-30T04:52:38.913Z,14.82
2023-01-30T04:55:08.331Z,12.55
2023-01-30T04:57:36.249Z,13.77
2023-01-30T05:00:07.073Z,14.50
2023-01-30T05:02:34.981Z,13.93
2023-01-30T05:05:02.868Z,12.93
2023-01-30T05:07:30.777Z,14.15
2023-01-30T05:09:58.762Z,13.65
2023-01-30T05:12:26.712Z,14.05
2023-01-30T05:14:54.661Z,16.02
2023-01-30T05:17:24.086Z,12.90
2023-01-30T05:19:52.071Z,13.18
2023-01-30T05:22:20.005Z,12.25
2023-01-30T05:24:48.694Z,12.40
2023-01-30T05:27:16.722Z,13.35
2023-01-30T05:29:44.698Z,13.65
2023-01-30T05:32:15.097Z,11.02
2023-01-30T05:34:44.504Z,12.50
2023-01-30T05:37:12.938Z,14.27
2023-01-30T05:39:40.890Z,14.10
2023-01-30T05:42:08.874Z,13.63
2023-01-30T05:44:36.798Z,12.55
2023-01-30T05:47:04.790Z,11.82
2023-01-30T05:49:32.713Z,12.73
2023-01-30T05:52:02.028Z,12.32
2023-01-30T05:54:29.970Z,12.52
2023-01-30T05:56:57.908Z,12.32
2023-01-30T05:59:25.838Z,13.68
2023-01-30T06:01:53.755Z,11.38
2023-01-30T06:04:21.702Z,14.48
2023-01-30T06:06:50.834Z,14.50
2023-01-30T06:09:20.188Z,13.13
2023-01-30T06:11:48.120Z,13.52
2023-01-30T06:14:16.029Z,12.10
2023-01-30T06:16:43.978Z,12.43
2023-01-30T06:19:12.713Z,15.10
2023-01-30T06:21:40.691Z,16.30
2023-01-30T06:24:08.910Z,13.07
2023-01-30T06:26:38.222Z,14.77
2023-01-30T06:29:06.367Z,15.50
2023-01-30T06:31:35.044Z,13.32
2023-01-30T06:34:03.048Z,17.92
2023-01-30T06:36:31.043Z,13.50
2023-01-30T06:38:59.000Z,15.15
2023-01-30T06:41:26.949Z,13.35
2023-01-30T06:43:56.829Z,12.35
2023-01-30T06:46:24.989Z,10.45
2023-01-30T06:48:53.041Z,14.63
2023-01-30T06:51:20.950Z,12.60
2023-01-30T06:53:49.910Z,10.27
2023-01-30T06:56:18.569Z,13.30
2023-01-30T06:58:46.654Z,9.65
2023-01-30T07:01:16.040Z,11.27
2023-01-30T07:03:44.034Z,11.82
2023-01-30T07:06:11.895Z,14.05
2023-01-30T07:08:40.931Z,11.43
2023-01-30T07:11:08.826Z,12.70
2023-01-30T07:13:36.828Z,15.13
2023-01-30T07:16:04.831Z,13.18
2023-01-30T07:18:34.194Z,12.45
2023-01-30T07:21:02.127Z,14.50
2023-01-30T07:23:30.057Z,14.98
2023-01-30T07:25:57.953Z,12.27
2023-01-30T07:28:25.838Z,13.77
2023-01-30T07:30:53.758Z,13.23
2023-01-30T07:33:21.778Z,13.77
2023-01-30T07:35:51.049Z,11.10
2023-01-30T07:38:19.049Z,12.63
2023-01-30T07:40:46.985Z,12.90
2023-01-30T07:43:15.849Z,10.63
2023-01-30T07:45:45.690Z,11.02
2023-01-30T07:48:15.309Z,13.30
2023-01-30T07:50:43.752Z,12.65
2023-01-30T07:53:15.278Z,13.30
2023-01-30T07:55:43.489Z,12.48
2023-01-30T07:58:14.692Z,11.80
2023-01-30T08:00:42.977Z,11.63
2023-01-30T08:03:13.542Z,14.02
2023-01-30T08:05:41.462Z,12.48
2023-01-30T08:08:09.468Z,14.02
2023-01-30T08:10:38.764Z,10.82
2023-01-30T08:13:06.691Z,13.52
2023-01-30T08:15:34.619Z,15.13
2023-01-30T08:18:03.223Z,15.05
2023-01-30T08:20:31.173Z,15.07
2023-01-30T08:23:00.662Z,13.18
2023-01-30T08:25:28.894Z,14.07
2023-01-30T08:28:00.370Z,14.68
2023-01-30T08:30:29.673Z,15.10
2023-01-30T08:32:58.827Z,13.57
2023-01-30T08:35:27.880Z,11.50
2023-01-30T08:37:55.983Z,13.40
2023-01-30T08:40:24.027Z,13.50
2023-01-30T08:42:51.963Z,9.63
2023-01-30T08:45:21.323Z,14.95
2023-01-30T08:47:52.299Z,13.18
2023-01-30T08:50:20.666Z,15.48
2023-01-30T08:52:48.714Z,11.48
2023-01-30T08:55:18.107Z,10.55
2023-01-30T08:57:46.037Z,12.98
2023-01-30T09:00:15.057Z,10.13
2023-01-30T09:02:47.568Z,8.80
2023-01-30T09:05:15.624Z,14.43
2023-01-30T09:07:43.594Z,16.08
2023-01-30T09:10:12.475Z,13.75
2023-01-30T09:12:40.553Z,12.27
2023-01-30T09:15:10.006Z,11.70
2023-01-30T09:17:38.391Z,11.75
2023-01-30T09:20:09.874Z,11.73
2023-01-30T09:22:38.137Z,10.50
2023-01-30T09:25:07.015Z,14.02
2023-01-30T09:27:35.216Z,14.50
2023-01-30T09:30:03.246Z,9.30
2023-01-30T09:32:31.176Z,12.25
2023-01-30T09:34:59.105Z,10.63
2023-01-30T09:37:28.416Z,11.05
2023-01-30T09:39:56.366Z,12.20
2023-01-30T09:42:47.008Z,13.65
2023-01-30T09:45:44.745Z,10.43
2023-01-30T09:48:19.651Z,16.55
2023-01-30T09:51:07.987Z,14.07
2023-01-30T09:53:49.166Z,17.10
2023-01-30T09:56:17.248Z,13.02
2023-01-30T09:58:49.033Z,15.27
2023-01-30T10:01:24.002Z,11.75
2023-01-30T10:04:06.421Z,14.13
2023-01-30T10:06:42.391Z,11.75
2023-01-30T10:09:18.409Z,11.35
2023-01-30T10:12:00.564Z,13.23
2023-01-30T10:14:51.740Z,14.30
2023-01-30T10:17:32.982Z,12.60
2023-01-30T10:20:15.193Z,9.93
2023-01-30T10:22:53.369Z,13.45
2023-01-30T10:25:30.485Z,14.32
2023-01-30T10:28:05.008Z,13.57
2023-01-30T10:30:33.672Z,13.90
2023-01-30T10:33:07.203Z,13.20
2023-01-30T10:35:38.069Z,14.93
2023-01-30T10:38:14.880Z,14.85
2023-01-30T10:40:48.585Z,13.27
2023-01-30T10:43:23.996Z,11.77
2023-01-30T10:46:02.814Z,10.70
2023-01-30T10:48:51.804Z,15.60
2023-01-30T10:51:28.964Z,12.63
2023-01-30T10:54:03.438Z,11.05
2023-01-30T10:56:41.143Z,12.52
2023-01-30T10:59:23.172Z,10.95
2023-01-30T11:01:59.393Z,13.32
2023-01-30T11:04:32.459Z,14.30
2023-01-30T11:07:02.120Z,14.82
2023-01-30T11:09:40.895Z,12.45
2023-01-30T11:12:10.417Z,16.40
2023-01-30T11:14:56.577Z,10.25
2023-01-30T11:17:32.069Z,10.70
2023-01-30T11:20:06.131Z,11.32
2023-01-30T11:22:35.957Z,11.43
2023-01-30T11:25:07.579Z,14.50
2023-01-30T11:27:36.973Z,12.13
2023-01-30T11:30:16.080Z,9.13
2023-01-30T11:32:45.256Z,14.75
2023-01-30T11:35:25.585Z,12.20
2023-01-30T11:37:54.700Z,11.68
2023-01-30T11:40:31.687Z,12.13
2023-01-30T11:43:07.243Z,13.00
2023-01-30T11:45:40.766Z,10.30
2023-01-30T11:48:33.496Z,10.63
2023-01-30T11:51:10.823Z,12.20
2023-01-30T11:53:42.397Z,12.15
2023-01-30T11:56:17.008Z,14.15
2023-01-30T11:58:50.413Z,11.13
2023-01-30T12:01:18.549Z,13.55
2023-01-30T12:03:49.988Z,14.07
2023-01-30T12:06:25.938Z,10.80
2023-01-30T12:08:56.045Z,9.60
2023-01-30T12:11:30.369Z,11.48
2023-01-30T12:14:10.350Z,10.15
2023-01-30T12:16:51.900Z,12.13
2023-01-30T12:19:30.798Z,12.15
2023-01-30T12:22:05.418Z,8.65
2023-01-30T12:24:39.686Z,10.40
2023-01-30T12:27:15.283Z,10.77
2023-01-30T12:29:58.864Z,9.20
2023-01-30T12:32:28.900Z,8.40
2023-01-30T12:34:57.438Z,10.52
2023-01-30T12:37:52.657Z,7.88
2023-01-30T12:40:32.289Z,7.60
2023-01-30T12:43:23.548Z,11.00
2023-01-30T12:46:04.592Z,10.48
2023-01-30T12:49:12.107Z,10.88
2023-01-30T12:51:57.507Z,7.72
2023-01-30T12:54:38.419Z,6.65
2023-01-30T12:57:15.867Z,9.50
2023-01-30T12:59:54.847Z,7.88
2023-01-30T13:02:47.375Z,10.27
2023-01-30T13:05:36.711Z,9.00
2023-01-30T13:08:25.046Z,9.77
2023-01-30T13:11:01.261Z,8.35
2023-01-30T13:13:43.147Z,6.18
2023-01-30T13:16:21.179Z,9.20
2023-01-30T13:18:55.688Z,7.70
2023-01-30T13:21:31.142Z,8.00
2023-01-30T13:24:15.191Z,5.85
2023-01-30T13:26:45.520Z,8.48
2023-01-30T13:29:17.441Z,8.93
2023-01-30T13:31:53.469Z,7.78
2023-01-30T13:34:29.437Z,11.00
2023-01-30T13:37:03.985Z,6.10
2023-01-30T13:39:42.526Z,8.63
2023-01-30T13:42:21.288Z,8.63
2023-01-30T13:44:51.448Z,7.28
2023-01-30T13:47:35.647Z,7.63
2023-01-30T13:52:48.007Z,6.10
2023-01-30T13:55:26.934Z,9.18
2023-01-30T13:58:03.416Z,7.35
2023-01-30T14:00:33.289Z,8.40
2023-01-30T14:03:31.562Z,9.73
2023-01-30T14:06:33.880Z,8.30
2023-01-30T14:09:18.181Z,5.47
2023-01-30T14:14:30.907Z,7.53
2023-01-30T14:17:10.135Z,9.07
2023-01-30T14:19:55.359Z,8.95
2023-01-30T14:22:36.288Z,6.03
2023-01-30T14:25:47.040Z,9.70
2023-01-30T14:28:53.673Z,8.95
2023-01-30T14:31:52.267Z,5.82
2023-01-30T14:34:48.149Z,7.53
2023-01-30T14:37:46.048Z,8.68
2023-01-30T14:40:37.126Z,8.00
2023-01-30T14:43:40.656Z,6.40
2023-01-30T14:46:33.963Z,7.25
2023-01-30T14:49:05.659Z,7.65
2023-01-30T14:51:37.086Z,9.65
2023-01-30T14:54:20.665Z,7.47
2023-01-30T14:56:54.231Z,7.53
2023-01-30T14:59:26.109Z,6.35
2023-01-30T15:02:00.820Z,6.85
2023-01-30T15:04:32.882Z,7.40
2023-01-30T15:07:03.631Z,9.13
2023-01-30T15:09:33.721Z,8.30
2023-01-30T15:12:21.447Z,7.55
2023-01-30T15:15:02.724Z,5.85
2023-01-30T15:17:43.065Z,8.13
2023-01-30T15:20:27.452Z,6.95
2023-01-30T15:23:13.034Z,9.48
2023-01-30T15:26:01.143Z,7.43
2023-01-30T15:28:45.929Z,9.13
2023-01-30T15:31:20.236Z,8.13
2023-01-30T15:33:53.179Z,8.65
2023-01-30T15:36:31.058Z,8.67
2023-01-30T15:39:01.910Z,9.32
2023-01-30T15:41:33.818Z,6.38
2023-01-30T15:44:20.464Z,7.00
2023-01-30T15:46:54.921Z,7.43
2023-01-30T15:49:47.599Z,7.85
2023-01-30T15:52:19.567Z,9.40
2023-01-30T15:54:53.423Z,14.35
2023-01-30T15:59:56.630Z,5.93
2023-01-30T16:02:30.672Z,9.60
2023-01-30T16:05:17.961Z,6.55
2023-01-30T16:07:47.794Z,6.60
2023-01-30T16:10:18.297Z,6.63
2023-01-30T16:12:50.392Z,9.50
2023-01-30T16:15:25.242Z,8.13
2023-01-30T16:18:03.677Z,7.93
2023-01-30T16:20:48.700Z,7.35
2023-01-30T16:23:30.611Z,8.07
2023-01-30T16:26:01.722Z,7.97
2023-01-30T16:28:32.590Z,7.85
2023-01-30T16:31:03.862Z,8.55
2023-01-30T16:33:37.029Z,9.15
2023-01-30T16:36:07.013Z,11.32
2023-01-30T16:38:39.193Z,7.15
2023-01-30T16:41:07.162Z,6.28
2023-01-30T16:43:36.498Z,6.90
2023-01-30T16:46:40.132Z,6.60
2023-01-30T16:49:16.258Z,5.38
2023-01-30T16:51:44.597Z,6.28
2023-01-30T16:54:20.457Z,5.00
2023-01-30T16:56:52.274Z,4.55
2023-01-30T16:59:30.957Z,5.85
2023-01-30T17:01:59.967Z,4.90
2023-01-30T17:04:30.954Z,5.32
2023-01-30T17:07:01.221Z,5.10
2023-01-30T17:09:44.610Z,5.00
2023-01-30T17:12:43.716Z,4.13
2023-01-30T17:15:31.056Z,4.32
2023-01-30T17:17:59.694Z,4.93
2023-01-30T17:20:39.235Z,5.35
2023-01-30T17:23:10.651Z,5.07
2023-01-30T17:25:42.973Z,4.80
2023-01-30T17:28:21.444Z,3.78
2023-01-30T17:30:51.407Z,4.10
2023-01-30T17:33:19.440Z,5.28
2023-01-30T17:35:47.560Z,5.05
2023-01-30T17:38:15.590Z,7.70
2023-01-30T17:40:44.024Z,5.45
2023-01-30T17:43:13.291Z,5.70
2023-01-30T17:45:41.723Z,4.72
2023-01-30T17:48:13.796Z,6.97
2023-01-30T17:50:41.702Z,4.97
2023-01-30T17:53:09.622Z,5.47
2023-01-30T17:55:37.549Z,5.53
2023-01-30T17:58:05.660Z,4.57
2023-01-30T18:00:33.582Z,4.75
2023-01-30T18:03:01.514Z,4.05
2023-01-30T18:05:31.207Z,4.53
2023-01-30T18:07:59.113Z,4.10
2023-01-30T18:10:27.170Z,4.32
2023-01-30T18:12:55.068Z,4.05
2023-01-30T18:15:23.033Z,4.47
2023-01-30T18:17:54.954Z,4.53
2023-01-30T18:20:22.936Z,4.70
2023-01-30T18:22:52.345Z,4.55
2023-01-30T18:25:20.685Z,4.30
2023-01-30T18:27:48.941Z,4.00
2023-01-30T18:30:18.362Z,4.07
2023-01-30T18:32:53.607Z,3.70
2023-01-30T18:35:22.221Z,4.10
2023-01-30T18:37:51.064Z,4.18
2023-01-30T18:40:21.944Z,5.45
2023-01-30T18:42:50.314Z,5.20
2023-01-30T18:45:18.452Z,6.43
2023-01-30T18:47:46.431Z,4.13
2023-01-30T18:50:14.463Z,6.78
2023-01-30T18:52:42.407Z,7.20
2023-01-30T18:55:10.861Z,5.57
2023-01-30T18:57:40.226Z,5.32
2023-01-30T19:00:10.011Z,4.40
2023-01-30T19:02:38.079Z,4.95
2023-01-30T19:05:06.581Z,4.75
2023-01-30T19:07:36.604Z,4.57
2023-01-30T19:10:04.845Z,9.98
2023-01-30T19:12:50.369Z,9.38
2023-01-30T19:15:19.725Z,6.65
2023-01-30T19:17:47.613Z,12.60
2023-01-30T19:20:15.525Z,10.40
2023-01-30T19:22:43.407Z,11.70
2023-01-30T19:25:11.567Z,25.27
2023-01-30T19:27:39.998Z,24.50
2023-01-30T19:30:09.543Z,8.63
2023-01-30T19:32:39.949Z,10.75
2023-01-30T19:35:08.656Z,7.22
2023-01-30T19:37:38.507Z,7.28
2023-01-30T19:40:10.877Z,6.60
2023-01-30T19:42:44.404Z,6.35
2023-01-30T19:45:15.211Z,7.40
2023-01-30T19:47:45.217Z,6.65
2023-01-30T19:50:14.725Z,6.43
2023-01-30T19:52:42.616Z,8.50
2023-01-30T19:55:10.915Z,4.88
2023-01-30T19:57:39.052Z,7.00
2023-01-30T20:00:10.023Z,5.57
2023-01-30T20:02:40.650Z,7.35
2023-01-30T20:05:11.950Z,8.05
2023-01-30T20:07:42.408Z,7.68
2023-01-30T20:10:13.013Z,7.63
2023-01-30T20:12:42.938Z,7.60
2023-01-30T20:15:13.099Z,7.85
2023-01-30T20:17:42.979Z,8.88
2023-01-30T20:20:14.443Z,8.60
2023-01-30T20:22:46.199Z,7.70
2023-01-30T20:25:15.222Z,7.25
2023-01-30T20:27:45.854Z,6.72
2023-01-30T20:30:16.345Z,8.70
2023-01-30T20:32:45.413Z,8.60
2023-01-30T20:35:15.785Z,8.75
2023-01-30T20:37:45.089Z,7.93
2023-01-30T20:40:15.602Z,8.43
2023-01-30T20:42:44.781Z,8.13
2023-01-30T20:45:13.463Z,8.57
2023-01-30T20:47:42.234Z,8.15
2023-01-30T20:50:14.110Z,10.05
2023-01-30T20:52:44.248Z,8.35
2023-01-30T20:55:12.608Z,9.38
2023-01-30T20:57:43.871Z,9.30
2023-01-30T21:00:14.760Z,10.43
2023-01-30T21:02:43.327Z,9.02
2023-01-30T21:05:13.007Z,7.25
2023-01-30T21:07:41.182Z,8.80
2023-01-30T21:10:12.347Z,7.75
2023-01-30T21:12:40.528Z,9.13
2023-01-30T21:15:09.789Z,7.68
2023-01-30T21:17:38.387Z,8.90
2023-01-30T21:20:06.978Z,7.88
2023-01-30T21:22:34.917Z,10.18
2023-01-30T21:25:02.874Z,9.70
2023-01-30T21:27:32.152Z,9.45
2023-01-30T21:30:00.537Z,7.07
2023-01-30T21:32:28.441Z,9.52
2023-01-30T21:34:56.368Z,9.10
2023-01-30T21:37:41.649Z,8.82
2023-01-30T21:40:28.855Z,9.13
2023-01-30T21:43:16.282Z,8.32
2023-01-30T21:45:44.594Z,8.43
2023-01-30T21:48:12.599Z,9.20
2023-01-30T21:50:40.989Z,9.63
2023-01-30T21:53:08.988Z,9.50
2023-01-30T21:55:36.895Z,8.57
2023-01-30T21:58:06.206Z,8.43
2023-01-30T22:00:34.062Z,8.73
2023-01-30T22:03:01.982Z,10.13
2023-01-30T22:05:36.531Z,9.32
2023-01-30T22:08:05.155Z,9.13
2023-01-30T22:10:33.067Z,9.45
2023-01-30T22:13:01.320Z,8.82
2023-01-30T22:15:30.706Z,9.32
2023-01-30T22:17:58.607Z,7.82
2023-01-30T22:20:26.612Z,8.55
2023-01-30T22:22:54.977Z,9.32
2023-01-30T22:25:22.955Z,9.57
2023-01-30T22:27:50.978Z,7.50
2023-01-30T22:30:19.563Z,8.93
2023-01-30T22:32:48.878Z,9.27
2023-01-30T22:35:17.182Z,8.52
2023-01-30T22:37:45.331Z,8.75
2023-01-30T22:40:13.831Z,8.90
2023-01-30T22:42:47.613Z,9.25
2023-01-30T22:45:15.568Z,10.00
2023-01-30T22:47:43.448Z,10.55
2023-01-30T22:50:13.014Z,9.75
2023-01-30T22:52:40.877Z,10.70
2023-01-30T22:55:09.488Z,10.88
2023-01-30T22:57:37.376Z,12.65
2023-01-30T23:00:06.989Z,10.63
2023-01-30T23:02:35.927Z,11.63
2023-01-30T23:05:03.919Z,10.82
2023-01-30T23:07:33.528Z,12.40
2023-01-30T23:10:01.429Z,10.82
2023-01-30T23:12:46.775Z,12.95
2023-01-30T23:15:14.696Z,13.85
2023-01-30T23:18:00.155Z,12.70
2023-01-30T23:20:28.131Z,13.98
2023-01-30T23:22:57.382Z,13.50
2023-01-30T23:25:25.274Z,13.82
2023-01-30T23:27:53.174Z,13.88
2023-01-30T23:30:21.132Z,13.85
2023-01-30T23:32:48.990Z,13.50
2023-01-30T23:35:17.402Z,13.48
2023-01-30T23:38:03.404Z,12.77
2023-01-30T23:40:32.740Z,11.18
2023-01-30T23:43:00.638Z,14.32
2023-01-30T23:45:29.530Z,14.38
2023-01-30T23:47:57.401Z,13.23
2023-01-30T23:50:25.289Z,13.50
2023-01-30T23:52:53.228Z,14.23
2023-01-30T23:55:21.415Z,14.23
2023-01-30T23:57:50.916Z,14.82
